Time;durP1;ratioP1;P1;durP2;ratioP2;P2;SDS_P1;SDS_P2;PMS_P1;PMS_P2;Temp;Humidity;BMP_temperature;BMP_pressure;BME280_temperature;BME280_humidity;BME280_pressure;Samples;Min_cycle;Max_cycle;Signal;HPM_P1;HPM_P2
2023/11/27 00:00:34;;;;;;;;;;;;;;;;;;4975638;28;19926;-76
2023/11/27 00:03:01;;;;;;;;;;;;;;;;;;4984549;28;19926;-76
2023/11/27 00:05:28;;;;;;;;;;;;;;;;;;4994592;28;20493;-77
2023/11/27 00:07:55;;;;;;;;;;;;;;;;;;4994111;28;19933;-77
2023/11/27 00:10:22;;;;;;;;;;;;;;;;;;4996549;28;19997;-76
2023/11/27 00:12:49;;;;;;;;;;;;;;;;;;4998949;28;19933;-76
2023/11/27 00:15:16;;;;;;;;;;;;;;;;;;4993359;28;19925;-76
2023/11/27 00:17:43;;;;;;;;;;;;;;;;;;4994461;28;19925;-76
2023/11/27 00:20:11;;;;;;;;;;;;;;;;;;4992333;28;19938;-75
2023/11/27 00:22:38;;;;;;;;;;;;;;;;;;4993065;28;19932;-76
2023/11/27 00:25:05;;;;;;;;;;;;;;;;;;4994098;28;19926;-76
2023/11/27 00:27:32;;;;;;;;;;;;;;;;;;4982013;28;20021;-78
2023/11/27 00:29:59;;;;;;;;;;;;;;;;;;4981917;28;19979;-77
2023/11/27 00:32:26;;;;;;;;;;;;;;;;;;4988034;28;19925;-75
2023/11/27 00:34:56;;;;;;;;;;;;;;;;;;4992871;28;20313;-75
2023/11/27 00:37:27;;;;;;;;;;;;;;;;;;5002015;28;19926;-75
2023/11/27 00:39:54;;;;;;;;;;;;;;;;;;4991115;28;19926;-77
2023/11/27 00:42:22;;;;;;;;;;;;;;;;;;4992175;28;19976;-76
2023/11/27 00:44:49;;;;;;;;;;;;;;;;;;4991384;28;20376;-75
2023/11/27 00:47:17;;;;;;;;;;;;;;;;;;4989330;28;20265;-74
2023/11/27 00:52:31;;;;;;;;;;;;;;;;;;4987323;28;19926;-78
2023/11/27 00:54:58;;;;;;;;;;;;;;;;;;4981658;28;19926;-78
2023/11/27 00:57:25;;;;;;;;;;;;;;;;;;4983878;28;19930;-78
2023/11/27 00:59:52;;;;;;;;;;;;;;;;;;4983527;28;19930;-77
2023/11/27 01:02:20;;;;;;;;;;;;;;;;;;4987396;28;19926;-77
2023/11/27 01:04:47;;;;;;;;;;;;;;;;;;4993425;28;19972;-77
2023/11/27 01:07:14;;;;;;;;;;;;;;;;;;4989689;28;20020;-77
2023/11/27 01:09:41;;;;;;;;;;;;;;;;;;4992306;28;19996;-77
2023/11/27 01:12:08;;;;;;;;;;;;;;;;;;4991178;28;19965;-77
2023/11/27 01:14:35;;;;;;;;;;;;;;;;;;4993143;28;19926;-77
2023/11/27 01:17:02;;;;;;;;;;;;;;;;;;4993037;28;20324;-76
2023/11/27 01:19:29;;;;;;;;;;;;;;;;;;4992940;28;19976;-78
2023/11/27 01:21:56;;;;;;;;;;;;;;;;;;4981973;28;19952;-76
2023/11/27 01:24:25;;;;;;;;;;;;;;;;;;4990148;28;19987;-77
2023/11/27 01:26:52;;;;;;;;;;;;;;;;;;4991918;28;19933;-76
2023/11/27 01:29:21;;;;;;;;;;;;;;;;;;4993654;28;19932;-77
2023/11/27 01:31:49;;;;;;;;;;;;;;;;;;4992985;28;19925;-76
2023/11/27 01:34:16;;;;;;;;;;;;;;;;;;4980644;28;19934;-77
2023/11/27 01:36:43;;;;;;;;;;;;;;;;;;4992379;28;19972;-76
2023/11/27 01:39:10;;;;;;;;;;;;;;;;;;4992698;28;19926;-78
2023/11/27 01:41:37;;;;;;;;;;;;;;;;;;4990079;28;19981;-77
2023/11/27 01:44:04;;;;;;;;;;;;;;;;;;4992596;28;19961;-77
2023/11/27 01:46:31;;;;;;;;;;;;;;;;;;4992458;28;19926;-77
2023/11/27 01:48:58;;;;;;;;;;;;;;;;;;4982542;28;19930;-79
2023/11/27 01:51:25;;;;;;;;;;;;;;;;;;4982957;28;20013;-78
2023/11/27 01:53:52;;;;;;;;;;;;;;;;;;4991283;28;19930;-78
2023/11/27 01:56:19;;;;;;;;;;;;;;;;;;4992358;28;20349;-77
2023/11/27 01:58:46;;;;;;;;;;;;;;;;;;4992866;28;20415;-77
2023/11/27 02:01:14;;;;;;;;;;;;;;;;;;4991589;28;19929;-77
2023/11/27 02:03:41;;;;;;;;;;;;;;;;;;4992528;28;19953;-78
2023/11/27 02:06:09;;;;;;;;;;;;;;;;;;4992913;28;19926;-76
2023/11/27 02:08:36;;;;;;;;;;;;;;;;;;4998825;28;19925;-77
2023/11/27 02:11:03;;;;;;;;;;;;;;;;;;4993372;28;19926;-77
2023/11/27 02:13:30;;;;;;;;;;;;;;;;;;4989962;28;19934;-77
2023/11/27 02:15:57;;;;;;;;;;;;;;;;;;4990559;28;20487;-77
2023/11/27 02:18:24;;;;;;;;;;;;;;;;;;4991764;28;20373;-78
2023/11/27 02:20:51;;;;;;;;;;;;;;;;;;4991954;28;20005;-77
2023/11/27 02:23:18;;;;;;;;;;;;;;;;;;4992135;28;20412;-76
2023/11/27 02:25:45;;;;;;;;;;;;;;;;;;4994495;28;19988;-77
2023/11/27 02:28:12;;;;;;;;;;;;;;;;;;4995074;28;20321;-76
2023/11/27 02:30:39;;;;;;;;;;;;;;;;;;4995836;28;19949;-75
2023/11/27 02:33:06;;;;;;;;;;;;;;;;;;4996838;28;19961;-75
2023/11/27 02:35:33;;;;;;;;;;;;;;;;;;4994164;28;20483;-77
2023/11/27 02:38:00;;;;;;;;;;;;;;;;;;4995463;28;19926;-77
2023/11/27 02:40:27;;;;;;;;;;;;;;;;;;4996041;28;19961;-76
2023/11/27 02:42:55;;;;;;;;;;;;;;;;;;4992828;28;19953;-76
2023/11/27 02:45:22;;;;;;;;;;;;;;;;;;4998879;28;20308;-75
2023/11/27 02:47:49;;;;;;;;;;;;;;;;;;4994142;28;19937;-76
2023/11/27 02:50:16;;;;;;;;;;;;;;;;;;4989675;28;19937;-76
2023/11/27 02:52:43;;;;;;;;;;;;;;;;;;4993162;28;19933;-76
2023/11/27 02:55:10;;;;;;;;;;;;;;;;;;4996328;28;19933;-77
2023/11/27 02:57:37;;;;;;;;;;;;;;;;;;4995505;28;20020;-77
2023/11/27 03:00:05;;;;;;;;;;;;;;;;;;4994663;28;20334;-79
2023/11/27 03:02:32;;;;;;;;;;;;;;;;;;4992093;28;19926;-78
2023/11/27 03:04:59;;;;;;;;;;;;;;;;;;4988838;28;19926;-78
2023/11/27 03:07:27;;;;;;;;;;;;;;;;;;4995364;28;19930;-77
2023/11/27 03:09:54;;;;;;;;;;;;;;;;;;5004544;28;19931;-75
2023/11/27 03:12:21;;;;;;;;;;;;;;;;;;5006575;28;19933;-76
2023/11/27 03:14:48;;;;;;;;;;;;;;;;;;4996098;28;19988;-76
2023/11/27 03:17:15;;;;;;;;;;;;;;;;;;4996322;28;20397;-78
2023/11/27 03:19:42;;;;;;;;;;;;;;;;;;4994702;28;19930;-77
2023/11/27 03:22:09;;;;;;;;;;;;;;;;;;4991473;28;19961;-76
2023/11/27 03:24:36;;;;;;;;;;;;;;;;;;4992442;28;19930;-76
2023/11/27 03:27:04;;;;;;;;;;;;;;;;;;4991286;28;20335;-77
2023/11/27 03:29:31;;;;;;;;;;;;;;;;;;4987120;28;19926;-76
2023/11/27 03:31:58;;;;;;;;;;;;;;;;;;4986285;28;19925;-76
2023/11/27 03:34:25;;;;;;;;;;;;;;;;;;4990340;28;19933;-77
2023/11/27 03:36:52;;;;;;;;;;;;;;;;;;4993979;28;19929;-76
2023/11/27 03:39:19;;;;;;;;;;;;;;;;;;4996682;28;19932;-76
2023/11/27 03:41:46;;;;;;;;;;;;;;;;;;4984875;28;20300;-78
2023/11/27 03:44:13;;;;;;;;;;;;;;;;;;4994792;28;19929;-76
2023/11/27 03:46:40;;;;;;;;;;;;;;;;;;4995879;28;19926;-77
2023/11/27 03:49:07;;;;;;;;;;;;;;;;;;4988856;28;20396;-78
2023/11/27 03:51:35;;;;;;;;;;;;;;;;;;4995167;28;19973;-77
2023/11/27 03:54:02;;;;;;;;;;;;;;;;;;4991924;28;19933;-77
2023/11/27 03:56:29;;;;;;;;;;;;;;;;;;4989079;28;20364;-77
2023/11/27 03:58:56;;;;;;;;;;;;;;;;;;4993093;28;19926;-76
2023/11/27 04:01:23;;;;;;;;;;;;;;;;;;4993973;28;19929;-76
2023/11/27 04:03:50;;;;;;;;;;;;;;;;;;4993202;28;19933;-78
2023/11/27 04:06:17;;;;;;;;;;;;;;;;;;4994727;28;19976;-77
2023/11/27 04:08:44;;;;;;;;;;;;;;;;;;4994244;28;19996;-79
2023/11/27 04:11:13;;;;;;;;;;;;;;;;;;4993973;28;20341;-77
2023/11/27 04:13:40;;;;;;;;;;;;;;;;;;4988032;28;19933;-76
2023/11/27 04:16:08;;;;;;;;;;;;;;;;;;4992849;28;19973;-76
2023/11/27 04:18:35;;;;;;;;;;;;;;;;;;4986972;28;19926;-77
2023/11/27 04:21:03;;;;;;;;;;;;;;;;;;4994369;28;19929;-77
2023/11/27 04:23:30;;;;;;;;;;;;;;;;;;4993171;28;19929;-76
2023/11/27 04:25:57;;;;;;;;;;;;;;;;;;4994470;28;19926;-75
2023/11/27 04:28:24;;;;;;;;;;;;;;;;;;4993687;28;19929;-76
2023/11/27 04:30:51;;;;;;;;;;;;;;;;;;4983910;28;19981;-75
2023/11/27 04:33:19;;;;;;;;;;;;;;;;;;4983058;28;19926;-77
2023/11/27 04:35:46;;;;;;;;;;;;;;;;;;4993224;28;19938;-79
2023/11/27 04:38:13;;;;;;;;;;;;;;;;;;4992910;28;19930;-79
2023/11/27 04:40:40;;;;;;;;;;;;;;;;;;4992897;28;19945;-82
2023/11/27 04:43:08;;;;;;;;;;;;;;;;;;4993658;28;19932;-77
2023/11/27 04:45:35;;;;;;;;;;;;;;;;;;4992344;28;20352;-78
2023/11/27 04:48:02;;;;;;;;;;;;;;;;;;4985629;28;20028;-79
2023/11/27 04:50:29;;;;;;;;;;;;;;;;;;4993313;28;19965;-75
2023/11/27 04:52:57;;;;;;;;;;;;;;;;;;4992722;28;19934;-76
2023/11/27 04:55:24;;;;;;;;;;;;;;;;;;4993898;28;19932;-76
2023/11/27 04:57:51;;;;;;;;;;;;;;;;;;4990629;28;19933;-75
2023/11/27 05:00:18;;;;;;;;;;;;;;;;;;4991826;28;19981;-76
2023/11/27 05:02:45;;;;;;;;;;;;;;;;;;4987271;28;19925;-74
2023/11/27 05:05:14;;;;;;;;;;;;;;;;;;4990859;28;19981;-77
2023/11/27 05:07:41;;;;;;;;;;;;;;;;;;4993295;28;19933;-80
2023/11/27 05:10:08;;;;;;;;;;;;;;;;;;4993731;28;19926;-80
2023/11/27 05:12:35;;;;;;;;;;;;;;;;;;4991693;28;20301;-83
2023/11/27 05:15:03;;;;;;;;;;;;;;;;;;4993270;28;19926;-81
2023/11/27 05:17:30;;;;;;;;;;;;;;;;;;4994067;28;20045;-83
2023/11/27 05:19:57;;;;;;;;;;;;;;;;;;4993710;28;19925;-78
2023/11/27 05:22:29;;;;;;;;;;;;;;;;;;4986957;28;19937;-79
2023/11/27 05:24:57;;;;;;;;;;;;;;;;;;4993940;28;20411;-82
2023/11/27 05:27:24;;;;;;;;;;;;;;;;;;4989393;28;19934;-79
2023/11/27 05:29:51;;;;;;;;;;;;;;;;;;4993737;28;19988;-79
2023/11/27 05:32:18;;;;;;;;;;;;;;;;;;4991586;28;19926;-75
2023/11/27 05:34:45;;;;;;;;;;;;;;;;;;4993063;28;20313;-77
2023/11/27 05:37:13;;;;;;;;;;;;;;;;;;4990655;28;20278;-78
2023/11/27 05:39:41;;;;;;;;;;;;;;;;;;4993729;28;20308;-79
2023/11/27 05:42:11;;;;;;;;;;;;;;;;;;4991911;28;19960;-78
2023/11/27 05:44:38;;;;;;;;;;;;;;;;;;4987915;28;19941;-77
2023/11/27 05:47:05;;;;;;;;;;;;;;;;;;4992126;28;19929;-78
2023/11/27 05:49:33;;;;;;;;;;;;;;;;;;4985041;28;19926;-77
2023/11/27 05:52:00;;;;;;;;;;;;;;;;;;4979046;28;20343;-83
2023/11/27 05:54:27;;;;;;;;;;;;;;;;;;4990784;28;20012;-80
2023/11/27 05:56:54;;;;;;;;;;;;;;;;;;4988604;28;19964;-80
2023/11/27 05:59:22;;;;;;;;;;;;;;;;;;4990881;28;19925;-81
2023/11/27 06:01:49;;;;;;;;;;;;;;;;;;4996317;28;19957;-77
2023/11/27 06:04:16;;;;;;;;;;;;;;;;;;4996173;28;20000;-77
2023/11/27 06:06:43;;;;;;;;;;;;;;;;;;4993964;28;19926;-77
2023/11/27 06:09:11;;;;;;;;;;;;;;;;;;4997770;28;19937;-76
2023/11/27 06:11:38;;;;;;;;;;;;;;;;;;4996206;28;19933;-79
2023/11/27 06:14:05;;;;;;;;;;;;;;;;;;4991785;28;19926;-79
2023/11/27 06:16:32;;;;;;;;;;;;;;;;;;4996810;28;19926;-79
2023/11/27 06:18:59;;;;;;;;;;;;;;;;;;4984503;28;20388;-80
2023/11/27 06:21:26;;;;;;;;;;;;;;;;;;4991859;28;19926;-77
2023/11/27 06:23:53;;;;;;;;;;;;;;;;;;4988667;28;19934;-77
2023/11/27 06:26:20;;;;;;;;;;;;;;;;;;4996733;28;19988;-79
2023/11/27 06:28:47;;;;;;;;;;;;;;;;;;4992664;28;19926;-78
2023/11/27 06:31:15;;;;;;;;;;;;;;;;;;4981146;28;20366;-77
2023/11/27 06:33:43;;;;;;;;;;;;;;;;;;4987235;28;19925;-77
2023/11/27 06:36:10;;;;;;;;;;;;;;;;;;4993337;28;19966;-77
2023/11/27 06:38:37;;;;;;;;;;;;;;;;;;4996564;28;19996;-77
2023/11/27 06:41:04;;;;;;;;;;;;;;;;;;4993425;28;20016;-77
2023/11/27 06:43:31;;;;;;;;;;;;;;;;;;4995461;28;19933;-78
2023/11/27 06:45:58;;;;;;;;;;;;;;;;;;4995777;28;19933;-78
2023/11/27 06:48:26;;;;;;;;;;;;;;;;;;4990944;28;19926;-78
2023/11/27 06:50:53;;;;;;;;;;;;;;;;;;4990318;28;19930;-77
2023/11/27 06:53:20;;;;;;;;;;;;;;;;;;4995857;28;19973;-78
2023/11/27 06:55:47;;;;;;;;;;;;;;;;;;4982136;28;19930;-78
2023/11/27 06:58:15;;;;;;;;;;;;;;;;;;4991567;28;19942;-80
2023/11/27 07:00:42;;;;;;;;;;;;;;;;;;4979918;28;19934;-81
2023/11/27 07:03:09;;;;;;;;;;;;;;;;;;4977823;28;21316;-80
2023/11/27 07:05:36;;;;;;;;;;;;;;;;;;4985134;28;19929;-82
2023/11/27 07:08:04;;;;;;;;;;;;;;;;;;4985933;28;19940;-80
2023/11/27 07:10:32;;;;;;;;;;;;;;;;;;4979766;28;20359;-81
2023/11/27 07:12:59;;;;;;;;;;;;;;;;;;4987917;28;19984;-82
2023/11/27 07:15:28;;;;;;;;;;;;;;;;;;4978029;28;20364;-80
2023/11/27 07:17:57;;;;;;;;;;;;;;;;;;4975988;28;19933;-78
2023/11/27 07:20:24;;;;;;;;;;;;;;;;;;4983927;28;20349;-85
2023/11/27 07:22:51;;;;;;;;;;;;;;;;;;4987147;28;20408;-85
2023/11/27 07:25:19;;;;;;;;;;;;;;;;;;5004386;28;19972;-93
2023/11/27 07:27:49;;;;;;;;;;;;;;;;;;5001292;28;20032;-79
2023/11/27 07:30:16;;;;;;;;;;;;;;;;;;5003332;28;19949;-83
2023/11/27 07:32:44;;;;;;;;;;;;;;;;;;4989164;28;20021;-78
2023/11/27 07:35:11;;;;;;;;;;;;;;;;;;4992651;28;19926;-78
2023/11/27 07:37:38;;;;;;;;;;;;;;;;;;4988919;28;19926;-84
2023/11/27 07:40:10;;;;;;;;;;;;;;;;;;4990306;28;19976;-86
2023/11/27 07:42:38;;;;;;;;;;;;;;;;;;4984203;28;20040;-86
2023/11/27 07:45:06;;;;;;;;;;;;;;;;;;4994635;28;19972;-87
2023/11/27 07:47:33;;;;;;;;;;;;;;;;;;4981469;28;19926;-86
2023/11/27 07:50:00;;;;;;;;;;;;;;;;;;4985391;28;19930;-86
2023/11/27 07:52:27;;;;;;;;;;;;;;;;;;4986655;28;20041;-80
2023/11/27 07:54:55;;;;;;;;;;;;;;;;;;4984746;28;19926;-77
2023/11/27 07:57:23;;;;;;;;;;;;;;;;;;4992803;28;19926;-83
2023/11/27 07:59:51;;;;;;;;;;;;;;;;;;4992064;28;20016;-85
2023/11/27 08:02:18;;;;;;;;;;;;;;;;;;4990093;28;19926;-84
2023/11/27 08:04:45;;;;;;;;;;;;;;;;;;4987241;28;20013;-85
2023/11/27 08:07:12;;;;;;;;;;;;;;;;;;4990114;28;20673;-83
2023/11/27 08:09:39;;;;;;;;;;;;;;;;;;4991581;28;19930;-84
2023/11/27 08:12:09;;;;;;;;;;;;;;;;;;4989285;28;19936;-83
2023/11/27 08:14:36;;;;;;;;;;;;;;;;;;4989126;28;20004;-78
2023/11/27 08:17:03;;;;;;;;;;;;;;;;;;4989106;28;19933;-82
2023/11/27 08:19:31;;;;;;;;;;;;;;;;;;4991058;28;19925;-85
2023/11/27 08:22:03;;;;;;;;;;;;;;;;;;4974235;28;19930;-86
2023/11/27 08:24:30;;;;;;;;;;;;;;;;;;4977109;28;20408;-85
2023/11/27 08:26:57;;;;;;;;;;;;;;;;;;4991703;28;19979;-84
2023/11/27 08:29:25;;;;;;;;;;;;;;;;;;4991903;28;20020;-81
2023/11/27 08:31:52;;;;;;;;;;;;;;;;;;4986779;28;20356;-83
2023/11/27 08:34:19;;;;;;;;;;;;;;;;;;4991688;28;19930;-84
2023/11/27 08:36:46;;;;;;;;;;;;;;;;;;4993211;28;19925;-83
2023/11/27 08:39:14;;;;;;;;;;;;;;;;;;4991956;28;19932;-86
2023/11/27 08:41:41;;;;;;;;;;;;;;;;;;4993609;28;19932;-86
2023/11/27 08:44:08;;;;;;;;;;;;;;;;;;4994049;28;19930;-73
2023/11/27 08:46:35;;;;;;;;;;;;;;;;;;4987777;28;20015;-73
2023/11/27 08:49:03;;;;;;;;;;;;;;;;;;4994283;28;19926;-74
2023/11/27 08:51:30;;;;;;;;;;;;;;;;;;4992081;28;19961;-72
2023/11/27 08:53:58;;;;;;;;;;;;;;;;;;4991200;28;19926;-72
2023/11/27 08:56:26;;;;;;;;;;;;;;;;;;4987570;28;19932;-72
2023/11/27 08:58:53;;;;;;;;;;;;;;;;;;4997207;28;20312;-73
2023/11/27 09:01:21;;;;;;;;;;;;;;;;;;4985530;28;19926;-75
2023/11/27 09:03:50;;;;;;;;;;;;;;;;;;4989312;28;20309;-74
2023/11/27 09:06:19;;;;;;;;;;;;;;;;;;4989245;28;20016;-75
2023/11/27 09:08:46;;;;;;;;;;;;;;;;;;4978037;28;19932;-74
2023/11/27 09:11:13;;;;;;;;;;;;;;;;;;4986917;28;19925;-74
2023/11/27 09:13:40;;;;;;;;;;;;;;;;;;4991417;28;19930;-74
2023/11/27 09:16:08;;;;;;;;;;;;;;;;;;4991068;28;19957;-73
2023/11/27 09:18:35;;;;;;;;;;;;;;;;;;4983242;28;19925;-73
2023/11/27 09:21:03;;;;;;;;;;;;;;;;;;4987791;28;19960;-74
2023/11/27 09:23:32;;;;;;;;;;;;;;;;;;4985719;28;20013;-73
2023/11/27 09:26:00;;;;;;;;;;;;;;;;;;4991009;28;19957;-75
2023/11/27 09:28:27;;;;;;;;;;;;;;;;;;4989389;28;19949;-75
2023/11/27 09:30:54;;;;;;;;;;;;;;;;;;4997993;28;19965;-76
2023/11/27 09:33:21;;;;;;;;;;;;;;;;;;4987286;28;19984;-75
2023/11/27 09:35:49;;;;;;;;;;;;;;;;;;4996987;28;19929;-74
2023/11/27 09:38:16;;;;;;;;;;;;;;;;;;4987706;28;19936;-75
2023/11/27 09:40:43;;;;;;;;;;;;;;;;;;4995485;28;19925;-75
2023/11/27 09:43:10;;;;;;;;;;;;;;;;;;4984803;28;19930;-73
2023/11/27 09:45:39;;;;;;;;;;;;;;;;;;4980705;28;23044;-74
2023/11/27 09:48:10;;;;;;;;;;;;;;;;;;4985855;28;19945;-74
2023/11/27 09:50:37;;;;;;;;;;;;;;;;;;4982265;28;20451;-76
2023/11/27 09:53:05;;;;;;;;;;;;;;;;;;4980962;28;20414;-76
2023/11/27 09:55:34;;;;;;;;;;;;;;;;;;4983498;28;19973;-76
2023/11/27 09:58:01;;;;;;;;;;;;;;;;;;4984275;28;19933;-76
2023/11/27 10:00:29;;;;;;;;;;;;;;;;;;4985149;28;19932;-76
2023/11/27 10:02:56;;;;;;;;;;;;;;;;;;4983387;28;19937;-75
2023/11/27 10:05:23;;;;;;;;;;;;;;;;;;4986175;28;20396;-75
2023/11/27 10:07:50;;;;;;;;;;;;;;;;;;4983283;28;19972;-77
2023/11/27 10:10:25;;;;;;;;;;;;;;;;;;4977996;28;19960;-77
2023/11/27 10:12:53;;;;;;;;;;;;;;;;;;4987449;28;19937;-75
2023/11/27 10:15:20;;;;;;;;;;;;;;;;;;4982968;28;20016;-77
2023/11/27 10:17:47;;;;;;;;;;;;;;;;;;4983432;28;19945;-79
2023/11/27 10:20:15;;;;;;;;;;;;;;;;;;4975868;28;19981;-76
2023/11/27 10:22:42;;;;;;;;;;;;;;;;;;4982603;28;19948;-75
2023/11/27 10:25:13;;;;;;;;;;;;;;;;;;4988383;28;19926;-74
2023/11/27 10:27:40;;;;;;;;;;;;;;;;;;4982877;28;20013;-75
2023/11/27 10:30:07;;;;;;;;;;;;;;;;;;4983966;28;19980;-75
2023/11/27 10:32:34;;;;;;;;;;;;;;;;;;4990790;28;20027;-75
2023/11/27 10:35:04;;;;;;;;;;;;;;;;;;4988877;28;19930;-76
2023/11/27 10:37:31;;;;;;;;;;;;;;;;;;4987850;28;19973;-76
2023/11/27 10:39:58;;;;;;;;;;;;;;;;;;4986978;28;19926;-75
2023/11/27 10:42:26;;;;;;;;;;;;;;;;;;4981857;28;19949;-75
2023/11/27 10:44:53;;;;;;;;;;;;;;;;;;4978796;28;20117;-78
2023/11/27 10:47:21;;;;;;;;;;;;;;;;;;4994233;28;20029;-76
2023/11/27 10:49:48;;;;;;;;;;;;;;;;;;5000169;28;20016;-77
2023/11/27 10:52:15;;;;;;;;;;;;;;;;;;4985898;28;20005;-77
2023/11/27 10:54:42;;;;;;;;;;;;;;;;;;4990485;28;19926;-77
2023/11/27 10:57:09;;;;;;;;;;;;;;;;;;4989591;28;19926;-78
2023/11/27 10:59:36;;;;;;;;;;;;;;;;;;4981705;28;20657;-77
2023/11/27 11:02:04;;;;;;;;;;;;;;;;;;4987238;28;19930;-77
2023/11/27 11:04:31;;;;;;;;;;;;;;;;;;4988698;28;19980;-78
2023/11/27 11:06:58;;;;;;;;;;;;;;;;;;4986120;28;19926;-78
2023/11/27 11:09:26;;;;;;;;;;;;;;;;;;4988574;28;19972;-78
2023/11/27 11:11:55;;;;;;;;;;;;;;;;;;4990729;28;19930;-73
2023/11/27 11:14:24;;;;;;;;;;;;;;;;;;4980830;28;19930;-79
2023/11/27 11:16:51;;;;;;;;;;;;;;;;;;4988711;28;19926;-79
2023/11/27 11:19:18;;;;;;;;;;;;;;;;;;4984978;28;19926;-75
2023/11/27 11:21:47;;;;;;;;;;;;;;;;;;4992736;28;19926;-73
2023/11/27 11:24:14;;;;;;;;;;;;;;;;;;4977856;28;19926;-74
2023/11/27 11:26:41;;;;;;;;;;;;;;;;;;4987792;28;20428;-76
2023/11/27 11:29:12;;;;;;;;;;;;;;;;;;4992673;28;20070;-74
2023/11/27 11:31:39;;;;;;;;;;;;;;;;;;5000816;28;19992;-77
2023/11/27 11:34:06;;;;;;;;;;;;;;;;;;4998372;28;19926;-78
2023/11/27 11:36:33;;;;;;;;;;;;;;;;;;5000358;28;20340;-77
2023/11/27 11:39:00;;;;;;;;;;;;;;;;;;4996556;28;19988;-80
2023/11/27 11:41:29;;;;;;;;;;;;;;;;;;4994023;28;20400;-76
2023/11/27 11:43:56;;;;;;;;;;;;;;;;;;5001061;28;19989;-78
2023/11/27 11:46:25;;;;;;;;;;;;;;;;;;4995752;28;19925;-76
2023/11/27 11:48:52;;;;;;;;;;;;;;;;;;5007725;28;19936;-78
2023/11/27 11:51:20;;;;;;;;;;;;;;;;;;4999609;28;19933;-78
2023/11/27 11:53:48;;;;;;;;;;;;;;;;;;4988222;28;20021;-75
2023/11/27 11:56:19;;;;;;;;;;;;;;;;;;4993735;28;19930;-77
2023/11/27 11:58:46;;;;;;;;;;;;;;;;;;4983852;28;19926;-76
2023/11/27 12:01:14;;;;;;;;;;;;;;;;;;5001728;28;19925;-77
2023/11/27 12:03:45;;;;;;;;;;;;;;;;;;4987713;28;19933;-77
2023/11/27 12:06:13;;;;;;;;;;;;;;;;;;4997333;28;19933;-77
2023/11/27 12:08:44;;;;;;;;;;;;;;;;;;5001029;28;19944;-76
2023/11/27 12:11:12;;;;;;;;;;;;;;;;;;5001390;28;20365;-78
2023/11/27 12:13:43;;;;;;;;;;;;;;;;;;4994671;28;19933;-77
2023/11/27 12:16:12;;;;;;;;;;;;;;;;;;4990659;28;19932;-77
2023/11/27 12:18:42;;;;;;;;;;;;;;;;;;4991943;28;19925;-79
2023/11/27 12:21:10;;;;;;;;;;;;;;;;;;4993240;28;19932;-78
2023/11/27 12:23:38;;;;;;;;;;;;;;;;;;4985343;28;19934;-78
2023/11/27 12:26:06;;;;;;;;;;;;;;;;;;4986023;28;19980;-77
2023/11/27 12:28:34;;;;;;;;;;;;;;;;;;4994583;28;20570;-77
2023/11/27 12:31:01;;;;;;;;;;;;;;;;;;4995077;28;20040;-78
2023/11/27 12:33:28;;;;;;;;;;;;;;;;;;4994096;28;19932;-79
2023/11/27 12:35:55;;;;;;;;;;;;;;;;;;4982877;28;19980;-78
2023/11/27 12:38:24;;;;;;;;;;;;;;;;;;4993708;28;20015;-78
2023/11/27 12:40:51;;;;;;;;;;;;;;;;;;5004686;28;19926;-78
2023/11/27 12:43:18;;;;;;;;;;;;;;;;;;4990981;28;19926;-79
2023/11/27 12:45:45;;;;;;;;;;;;;;;;;;4985808;28;19940;-80
2023/11/27 12:48:12;;;;;;;;;;;;;;;;;;4987605;28;19933;-80
2023/11/27 12:50:39;;;;;;;;;;;;;;;;;;4990431;28;19926;-78
2023/11/27 12:53:07;;;;;;;;;;;;;;;;;;4996048;28;19978;-81
2023/11/27 12:55:36;;;;;;;;;;;;;;;;;;4995013;28;20017;-78
2023/11/27 12:58:04;;;;;;;;;;;;;;;;;;4991407;28;20616;-79
2023/11/27 13:00:32;;;;;;;;;;;;;;;;;;4994320;28;19988;-81
2023/11/27 13:02:59;;;;;;;;;;;;;;;;;;4990762;28;20016;-79
2023/11/27 13:05:28;;;;;;;;;;;;;;;;;;4989318;28;19968;-79
2023/11/27 13:07:57;;;;;;;;;;;;;;;;;;4997573;28;19925;-78
2023/11/27 13:10:24;;;;;;;;;;;;;;;;;;4995233;28;19981;-79
2023/11/27 13:12:54;;;;;;;;;;;;;;;;;;4990830;28;19933;-78
2023/11/27 13:15:23;;;;;;;;;;;;;;;;;;4979854;28;20363;-79
2023/11/27 13:17:53;;;;;;;;;;;;;;;;;;4996014;28;19925;-78
2023/11/27 13:20:21;;;;;;;;;;;;;;;;;;4992968;28;19926;-78
2023/11/27 13:22:48;;;;;;;;;;;;;;;;;;4994121;28;19953;-78
2023/11/27 13:25:16;;;;;;;;;;;;;;;;;;4996610;28;19925;-80
2023/11/27 13:27:46;;;;;;;;;;;;;;;;;;4991283;28;20004;-78
2023/11/27 13:30:16;;;;;;;;;;;;;;;;;;4989386;28;19953;-79
2023/11/27 13:32:43;;;;;;;;;;;;;;;;;;4989740;28;19926;-79
2023/11/27 13:35:11;;;;;;;;;;;;;;;;;;4990167;28;19926;-80
2023/11/27 13:37:39;;;;;;;;;;;;;;;;;;4998618;28;20004;-79
2023/11/27 13:40:06;;;;;;;;;;;;;;;;;;5001152;28;19926;-77
2023/11/27 13:42:35;;;;;;;;;;;;;;;;;;5011152;28;19930;-75
2023/11/27 13:45:03;;;;;;;;;;;;;;;;;;5015215;28;19933;-77
2023/11/27 13:47:32;;;;;;;;;;;;;;;;;;4996348;28;19984;-77
2023/11/27 13:49:59;;;;;;;;;;;;;;;;;;5009326;28;19983;-79
2023/11/27 13:52:28;;;;;;;;;;;;;;;;;;4991298;28;19940;-79
2023/11/27 13:54:55;;;;;;;;;;;;;;;;;;4995775;28;20365;-78
2023/11/27 13:57:27;;;;;;;;;;;;;;;;;;4984829;28;19980;-77
2023/11/27 13:59:56;;;;;;;;;;;;;;;;;;4996144;28;19947;-76
2023/11/27 14:02:27;;;;;;;;;;;;;;;;;;4993655;28;19936;-77
2023/11/27 14:05:05;;;;;;;;;;;;;;;;;;4996509;28;19968;-79
2023/11/27 14:07:35;;;;;;;;;;;;;;;;;;4992744;28;19981;-79
2023/11/27 14:10:05;;;;;;;;;;;;;;;;;;4999313;28;19979;-77
2023/11/27 14:12:38;;;;;;;;;;;;;;;;;;4990108;28;19965;-78
2023/11/27 14:15:21;;;;;;;;;;;;;;;;;;5002787;28;20305;-76
2023/11/27 14:18:26;;;;;;;;;;;;;;;;;;4997121;28;19926;-81
2023/11/27 14:21:42;;;;;;;;;;;;;;;;;;5004672;28;20019;-77
2023/11/27 14:23:49;;;;;;;;;;;;;;;;;;5011176;28;19926;-79
2023/11/27 14:26:34;;;;;;;;;;;;;;;;;;4992693;28;19925;-79
2023/11/27 14:29:06;;;;;;;;;;;;;;;;;;5009614;28;19929;-76
2023/11/27 14:31:33;;;;;;;;;;;;;;;;;;5004426;28;19981;-76
2023/11/27 14:34:00;;;;;;;;;;;;;;;;;;4985428;28;20336;-76
2023/11/27 14:36:29;;;;;;;;;;;;;;;;;;4990855;28;20420;-78
2023/11/27 14:38:56;;;;;;;;;;;;;;;;;;4995214;28;19981;-77
2023/11/27 14:41:23;;;;;;;;;;;;;;;;;;5003775;28;19980;-75
2023/11/27 14:43:50;;;;;;;;;;;;;;;;;;4997772;28;19929;-79
2023/11/27 14:46:17;;;;;;;;;;;;;;;;;;4985291;28;19972;-72
2023/11/27 14:48:44;;;;;;;;;;;;;;;;;;4997365;28;20333;-81
2023/11/27 14:51:12;;;;;;;;;;;;;;;;;;4989715;28;20320;-80
2023/11/27 14:53:46;;;;;;;;;;;;;;;;;;4991562;28;19953;-83
2023/11/27 14:56:13;;;;;;;;;;;;;;;;;;5005075;28;20453;-79
2023/11/27 14:58:41;;;;;;;;;;;;;;;;;;4992670;28;19964;-77
2023/11/27 15:01:09;;;;;;;;;;;;;;;;;;4998716;28;19972;-77
2023/11/27 15:03:39;;;;;;;;;;;;;;;;;;4995346;28;19949;-77
2023/11/27 15:06:06;;;;;;;;;;;;;;;;;;4986511;28;20108;-81
2023/11/27 15:08:33;;;;;;;;;;;;;;;;;;5002784;28;19925;-78
2023/11/27 15:11:03;;;;;;;;;;;;;;;;;;4985685;28;19927;-81
2023/11/27 15:13:30;;;;;;;;;;;;;;;;;;4992734;28;20369;-80
2023/11/27 15:15:58;;;;;;;;;;;;;;;;;;4985712;28;20021;-73
2023/11/27 15:18:25;;;;;;;;;;;;;;;;;;5005455;28;19998;-75
2023/11/27 15:20:52;;;;;;;;;;;;;;;;;;4990762;28;20000;-76
2023/11/27 15:23:19;;;;;;;;;;;;;;;;;;4984656;28;19926;-76
2023/11/27 15:25:50;;;;;;;;;;;;;;;;;;4992386;28;19926;-73
2023/11/27 15:28:19;;;;;;;;;;;;;;;;;;4985999;28;19930;-77
2023/11/27 15:30:53;;;;;;;;;;;;;;;;;;4988609;28;20013;-78
2023/11/27 15:33:20;;;;;;;;;;;;;;;;;;4990061;28;19933;-81
2023/11/27 15:35:47;;;;;;;;;;;;;;;;;;4974699;28;19926;-76
2023/11/27 15:38:15;;;;;;;;;;;;;;;;;;4992569;28;19968;-77
2023/11/27 15:40:42;;;;;;;;;;;;;;;;;;4995180;28;19930;-74
2023/11/27 15:43:10;;;;;;;;;;;;;;;;;;4990581;28;19930;-78
2023/11/27 15:45:37;;;;;;;;;;;;;;;;;;5002365;28;20281;-76
2023/11/27 15:48:06;;;;;;;;;;;;;;;;;;4994930;28;19989;-77
2023/11/27 15:50:34;;;;;;;;;;;;;;;;;;4989979;28;20039;-76
2023/11/27 15:53:02;;;;;;;;;;;;;;;;;;5006173;28;20375;-76
2023/11/27 15:55:29;;;;;;;;;;;;;;;;;;4999652;28;19988;-76
2023/11/27 15:57:56;;;;;;;;;;;;;;;;;;4993151;28;24310;-77
2023/11/27 16:00:25;;;;;;;;;;;;;;;;;;4996240;28;19926;-78
2023/11/27 16:02:55;;;;;;;;;;;;;;;;;;4984556;28;19934;-76
2023/11/27 16:05:23;;;;;;;;;;;;;;;;;;4974075;28;19996;-76
2023/11/27 16:07:50;;;;;;;;;;;;;;;;;;4983750;28;19941;-76
2023/11/27 16:10:21;;;;;;;;;;;;;;;;;;4986949;28;19968;-76
2023/11/27 16:12:49;;;;;;;;;;;;;;;;;;5001343;28;19969;-77
2023/11/27 16:15:16;;;;;;;;;;;;;;;;;;4979440;28;20001;-76
2023/11/27 16:17:43;;;;;;;;;;;;;;;;;;4971882;28;20616;-77
2023/11/27 16:20:11;;;;;;;;;;;;;;;;;;4982165;28;19932;-76
2023/11/27 16:22:39;;;;;;;;;;;;;;;;;;4973861;28;19941;-76
2023/11/27 16:25:07;;;;;;;;;;;;;;;;;;4974574;28;20749;-78
2023/11/27 16:27:34;;;;;;;;;;;;;;;;;;4970587;28;20798;-81
2023/11/27 16:30:05;;;;;;;;;;;;;;;;;;4985933;28;20036;-77
2023/11/27 16:32:32;;;;;;;;;;;;;;;;;;4996909;28;20017;-79
2023/11/27 16:35:14;;;;;;;;;;;;;;;;;;4972490;28;20020;-77
2023/11/27 16:37:41;;;;;;;;;;;;;;;;;;4978566;28;20020;-77
2023/11/27 16:40:14;;;;;;;;;;;;;;;;;;4977695;28;20563;-77
2023/11/27 16:42:42;;;;;;;;;;;;;;;;;;4975419;28;19988;-78
2023/11/27 16:45:09;;;;;;;;;;;;;;;;;;4976569;28;19968;-79
2023/11/27 16:47:36;;;;;;;;;;;;;;;;;;4980795;28;19948;-77
2023/11/27 16:50:04;;;;;;;;;;;;;;;;;;4988831;28;20340;-78
2023/11/27 16:52:33;;;;;;;;;;;;;;;;;;4987325;28;21095;-76